sensor_id;sensor_type;location;lat;lon;timestamp;P1;durP1;ratioP1;P2;durP2;ratioP2
43048;SDS011;28673;44.412;11.918;2023-03-04T00:00:36;40.40;;;22.48;;
43048;SDS011;28673;44.412;11.918;2023-03-04T00:03:07;32.15;;;21.27;;
43048;SDS011;28673;44.412;11.918;2023-03-04T00:05:35;31.83;;;18.95;;
43048;SDS011;28673;44.412;11.918;2023-03-04T00:08:02;42.13;;;22.50;;
43048;SDS011;28673;44.412;11.918;2023-03-04T00:10:28;33.25;;;20.20;;
43048;SDS011;28673;44.412;11.918;2023-03-04T00:12:53;32.05;;;20.10;;
43048;SDS011;28673;44.412;11.918;2023-03-04T00:15:19;35.92;;;22.15;;
43048;SDS011;28673;44.412;11.918;2023-03-04T00:17:45;38.38;;;22.80;;
43048;SDS011;28673;44.412;11.918;2023-03-04T00:20:11;35.65;;;22.00;;
43048;SDS011;28673;44.412;11.918;2023-03-04T00:22:37;37.20;;;21.55;;
43048;SDS011;28673;44.412;11.918;2023-03-04T00:25:03;37.22;;;21.55;;
43048;SDS011;28673;44.412;11.918;2023-03-04T00:27:30;34.25;;;20.40;;
43048;SDS011;28673;44.412;11.918;2023-03-04T00:29:55;36.92;;;21.30;;
43048;SDS011;28673;44.412;11.918;2023-03-04T00:32:21;33.13;;;20.40;;
43048;SDS011;28673;44.412;11.918;2023-03-04T00:34:47;36.53;;;21.40;;
43048;SDS011;28673;44.412;11.918;2023-03-04T00:37:13;35.75;;;20.77;;
43048;SDS011;28673;44.412;11.918;2023-03-04T00:39:39;38.80;;;21.70;;
43048;SDS011;28673;44.412;11.918;2023-03-04T00:42:05;34.63;;;20.13;;
43048;SDS011;28673;44.412;11.918;2023-03-04T00:44:31;32.97;;;19.38;;
43048;SDS011;28673;44.412;11.918;2023-03-04T00:46:58;34.72;;;20.33;;
43048;SDS011;28673;44.412;11.918;2023-03-04T00:49:24;36.53;;;20.02;;
43048;SDS011;28673;44.412;11.918;2023-03-04T00:51:50;34.55;;;20.85;;
43048;SDS011;28673;44.412;11.918;2023-03-04T00:54:16;39.22;;;20.17;;
43048;SDS011;28673;44.412;11.918;2023-03-04T00:56:42;40.97;;;22.10;;
43048;SDS011;28673;44.412;11.918;2023-03-04T00:59:08;38.00;;;22.00;;
43048;SDS011;28673;44.412;11.918;2023-03-04T01:01:34;40.70;;;20.08;;
43048;SDS011;28673;44.412;11.918;2023-03-04T01:04:00;31.38;;;20.95;;
43048;SDS011;28673;44.412;11.918;2023-03-04T01:06:25;35.25;;;19.92;;
43048;SDS011;28673;44.412;11.918;2023-03-04T01:08:51;33.65;;;20.38;;
43048;SDS011;28673;44.412;11.918;2023-03-04T01:11:17;34.95;;;19.10;;
43048;SDS011;28673;44.412;11.918;2023-03-04T01:13:43;38.55;;;20.90;;
43048;SDS011;28673;44.412;11.918;2023-03-04T01:16:09;33.60;;;19.25;;
43048;SDS011;28673;44.412;11.918;2023-03-04T01:18:37;31.15;;;17.80;;
43048;SDS011;28673;44.412;11.918;2023-03-04T01:21:03;30.33;;;18.58;;
43048;SDS011;28673;44.412;11.918;2023-03-04T01:23:29;39.92;;;19.67;;
43048;SDS011;28673;44.412;11.918;2023-03-04T01:25:55;30.58;;;17.52;;
43048;SDS011;28673;44.412;11.918;2023-03-04T01:28:20;30.75;;;17.65;;
43048;SDS011;28673;44.412;11.918;2023-03-04T01:30:46;30.00;;;17.60;;
43048;SDS011;28673;44.412;11.918;2023-03-04T01:33:12;29.83;;;18.08;;
43048;SDS011;28673;44.412;11.918;2023-03-04T01:35:38;28.80;;;18.30;;
43048;SDS011;28673;44.412;11.918;2023-03-04T01:38:04;29.98;;;18.50;;
43048;SDS011;28673;44.412;11.918;2023-03-04T01:40:30;32.03;;;18.60;;
43048;SDS011;28673;44.412;11.918;2023-03-04T01:42:56;30.95;;;17.55;;
43048;SDS011;28673;44.412;11.918;2023-03-04T01:45:22;26.05;;;17.95;;
43048;SDS011;28673;44.412;11.918;2023-03-04T01:47:49;30.08;;;18.00;;
43048;SDS011;28673;44.412;11.918;2023-03-04T01:50:21;33.85;;;18.42;;
43048;SDS011;28673;44.412;11.918;2023-03-04T01:52:54;32.25;;;18.65;;
43048;SDS011;28673;44.412;11.918;2023-03-04T01:55:21;28.60;;;17.08;;
43048;SDS011;28673;44.412;11.918;2023-03-04T01:57:48;33.10;;;19.10;;
43048;SDS011;28673;44.412;11.918;2023-03-04T02:00:23;27.50;;;17.58;;
43048;SDS011;28673;44.412;11.918;2023-03-04T02:03:01;35.17;;;17.60;;
43048;SDS011;28673;44.412;11.918;2023-03-04T02:05:32;28.15;;;17.38;;
43048;SDS011;28673;44.412;11.918;2023-03-04T02:08:00;31.00;;;17.65;;
43048;SDS011;28673;44.412;11.918;2023-03-04T02:10:27;28.83;;;17.48;;
43048;SDS011;28673;44.412;11.918;2023-03-04T02:12:53;29.85;;;17.20;;
43048;SDS011;28673;44.412;11.918;2023-03-04T02:15:20;30.23;;;17.65;;
43048;SDS011;28673;44.412;11.918;2023-03-04T02:17:46;33.00;;;17.58;;
43048;SDS011;28673;44.412;11.918;2023-03-04T02:22:56;29.38;;;17.25;;
43048;SDS011;28673;44.412;11.918;2023-03-04T02:25:51;27.38;;;16.65;;
43048;SDS011;28673;44.412;11.918;2023-03-04T02:28:39;27.30;;;15.48;;
43048;SDS011;28673;44.412;11.918;2023-03-04T02:31:05;26.70;;;16.90;;
43048;SDS011;28673;44.412;11.918;2023-03-04T02:36:02;29.95;;;16.75;;
43048;SDS011;28673;44.412;11.918;2023-03-04T02:38:28;28.30;;;14.90;;
43048;SDS011;28673;44.412;11.918;2023-03-04T02:40:54;31.33;;;16.80;;
43048;SDS011;28673;44.412;11.918;2023-03-04T02:43:21;27.80;;;15.00;;
43048;SDS011;28673;44.412;11.918;2023-03-04T02:45:48;32.15;;;16.20;;
43048;SDS011;28673;44.412;11.918;2023-03-04T02:48:16;29.60;;;16.77;;
43048;SDS011;28673;44.412;11.918;2023-03-04T02:50:48;31.38;;;16.27;;
43048;SDS011;28673;44.412;11.918;2023-03-04T02:53:16;33.75;;;17.70;;
43048;SDS011;28673;44.412;11.918;2023-03-04T02:55:44;37.83;;;17.60;;
43048;SDS011;28673;44.412;11.918;2023-03-04T02:58:11;32.28;;;17.45;;
43048;SDS011;28673;44.412;11.918;2023-03-04T03:00:38;28.40;;;16.80;;
43048;SDS011;28673;44.412;11.918;2023-03-04T03:03:05;36.42;;;18.27;;
43048;SDS011;28673;44.412;11.918;2023-03-04T03:05:34;29.88;;;17.02;;
43048;SDS011;28673;44.412;11.918;2023-03-04T03:08:02;35.53;;;20.48;;
43048;SDS011;28673;44.412;11.918;2023-03-04T03:10:28;32.33;;;18.90;;
43048;SDS011;28673;44.412;11.918;2023-03-04T03:12:55;31.67;;;18.13;;
43048;SDS011;28673;44.412;11.918;2023-03-04T03:15:21;34.35;;;21.40;;
43048;SDS011;28673;44.412;11.918;2023-03-04T03:17:47;39.97;;;19.33;;
43048;SDS011;28673;44.412;11.918;2023-03-04T03:20:13;28.75;;;18.45;;
43048;SDS011;28673;44.412;11.918;2023-03-04T03:22:39;32.80;;;17.58;;
43048;SDS011;28673;44.412;11.918;2023-03-04T03:25:05;34.45;;;19.50;;
43048;SDS011;28673;44.412;11.918;2023-03-04T03:27:32;34.13;;;18.38;;
43048;SDS011;28673;44.412;11.918;2023-03-04T03:29:58;45.08;;;18.98;;
43048;SDS011;28673;44.412;11.918;2023-03-04T03:32:24;34.08;;;19.20;;
43048;SDS011;28673;44.412;11.918;2023-03-04T03:34:52;37.75;;;18.65;;
43048;SDS011;28673;44.412;11.918;2023-03-04T03:37:18;33.05;;;18.50;;
43048;SDS011;28673;44.412;11.918;2023-03-04T03:39:44;45.38;;;18.52;;
43048;SDS011;28673;44.412;11.918;2023-03-04T03:42:09;33.40;;;18.60;;
43048;SDS011;28673;44.412;11.918;2023-03-04T03:44:35;34.47;;;19.05;;
43048;SDS011;28673;44.412;11.918;2023-03-04T03:47:01;32.17;;;18.13;;
43048;SDS011;28673;44.412;11.918;2023-03-04T03:49:27;39.20;;;18.70;;
43048;SDS011;28673;44.412;11.918;2023-03-04T03:51:53;35.30;;;20.33;;
43048;SDS011;28673;44.412;11.918;2023-03-04T03:54:19;30.50;;;17.45;;
43048;SDS011;28673;44.412;11.918;2023-03-04T03:56:45;39.33;;;18.27;;
43048;SDS011;28673;44.412;11.918;2023-03-04T03:59:11;33.28;;;20.17;;
43048;SDS011;28673;44.412;11.918;2023-03-04T04:01:37;33.95;;;18.35;;
43048;SDS011;28673;44.412;11.918;2023-03-04T04:04:03;32.42;;;18.90;;
43048;SDS011;28673;44.412;11.918;2023-03-04T04:06:29;39.08;;;18.77;;
43048;SDS011;28673;44.412;11.918;2023-03-04T04:08:55;31.77;;;17.98;;
43048;SDS011;28673;44.412;11.918;2023-03-04T04:11:20;37.30;;;18.92;;
43048;SDS011;28673;44.412;11.918;2023-03-04T04:13:46;38.10;;;19.23;;
43048;SDS011;28673;44.412;11.918;2023-03-04T04:16:12;29.77;;;16.98;;
43048;SDS011;28673;44.412;11.918;2023-03-04T04:18:38;30.33;;;16.73;;
43048;SDS011;28673;44.412;11.918;2023-03-04T04:21:04;45.63;;;18.58;;
43048;SDS011;28673;44.412;11.918;2023-03-04T04:23:30;42.33;;;17.20;;
43048;SDS011;28673;44.412;11.918;2023-03-04T04:25:57;37.53;;;17.88;;
43048;SDS011;28673;44.412;11.918;2023-03-04T04:28:23;38.90;;;17.63;;
43048;SDS011;28673;44.412;11.918;2023-03-04T04:30:49;28.13;;;16.55;;
43048;SDS011;28673;44.412;11.918;2023-03-04T04:33:15;30.95;;;15.15;;
43048;SDS011;28673;44.412;11.918;2023-03-04T04:35:41;31.65;;;17.23;;
43048;SDS011;28673;44.412;11.918;2023-03-04T04:38:07;23.83;;;15.98;;
43048;SDS011;28673;44.412;11.918;2023-03-04T04:40:34;41.38;;;17.08;;
43048;SDS011;28673;44.412;11.918;2023-03-04T04:43:00;40.38;;;16.65;;
43048;SDS011;28673;44.412;11.918;2023-03-04T04:45:26;47.20;;;17.98;;
43048;SDS011;28673;44.412;11.918;2023-03-04T04:47:52;34.40;;;17.73;;
43048;SDS011;28673;44.412;11.918;2023-03-04T04:50:21;31.55;;;16.88;;
43048;SDS011;28673;44.412;11.918;2023-03-04T04:52:48;31.15;;;15.80;;
43048;SDS011;28673;44.412;11.918;2023-03-04T04:55:14;37.38;;;15.27;;
43048;SDS011;28673;44.412;11.918;2023-03-04T04:57:40;24.75;;;15.75;;
43048;SDS011;28673;44.412;11.918;2023-03-04T05:00:06;28.30;;;14.82;;
43048;SDS011;28673;44.412;11.918;2023-03-04T05:02:34;29.58;;;14.70;;
43048;SDS011;28673;44.412;11.918;2023-03-04T05:05:02;27.13;;;15.88;;
43048;SDS011;28673;44.412;11.918;2023-03-04T05:07:28;24.38;;;15.13;;
43048;SDS011;28673;44.412;11.918;2023-03-04T05:09:54;31.33;;;16.52;;
43048;SDS011;28673;44.412;11.918;2023-03-04T05:12:20;27.20;;;14.80;;
43048;SDS011;28673;44.412;11.918;2023-03-04T05:14:46;36.90;;;16.55;;
43048;SDS011;28673;44.412;11.918;2023-03-04T05:17:12;27.42;;;15.77;;
43048;SDS011;28673;44.412;11.918;2023-03-04T05:19:38;33.50;;;15.63;;
43048;SDS011;28673;44.412;11.918;2023-03-04T05:22:03;32.65;;;14.73;;
43048;SDS011;28673;44.412;11.918;2023-03-04T05:24:29;23.30;;;15.00;;
43048;SDS011;28673;44.412;11.918;2023-03-04T05:26:55;36.08;;;16.38;;
43048;SDS011;28673;44.412;11.918;2023-03-04T05:29:21;29.75;;;13.75;;
43048;SDS011;28673;44.412;11.918;2023-03-04T05:31:47;37.35;;;14.90;;
43048;SDS011;28673;44.412;11.918;2023-03-04T05:34:12;26.67;;;13.98;;
43048;SDS011;28673;44.412;11.918;2023-03-04T05:36:38;21.35;;;13.95;;
43048;SDS011;28673;44.412;11.918;2023-03-04T05:39:04;23.52;;;12.95;;
43048;SDS011;28673;44.412;11.918;2023-03-04T05:41:30;24.33;;;12.52;;
43048;SDS011;28673;44.412;11.918;2023-03-04T05:43:56;23.88;;;12.88;;
43048;SDS011;28673;44.412;11.918;2023-03-04T05:46:22;26.38;;;12.77;;
43048;SDS011;28673;44.412;11.918;2023-03-04T05:48:50;29.20;;;12.65;;
43048;SDS011;28673;44.412;11.918;2023-03-04T05:51:17;22.55;;;12.63;;
43048;SDS011;28673;44.412;11.918;2023-03-04T05:53:43;22.60;;;11.60;;
43048;SDS011;28673;44.412;11.918;2023-03-04T05:56:10;27.63;;;13.23;;
43048;SDS011;28673;44.412;11.918;2023-03-04T05:58:40;25.38;;;12.43;;
43048;SDS011;28673;44.412;11.918;2023-03-04T06:01:06;24.15;;;12.75;;
43048;SDS011;28673;44.412;11.918;2023-03-04T06:03:32;23.17;;;12.85;;
43048;SDS011;28673;44.412;11.918;2023-03-04T06:05:58;20.67;;;13.27;;
43048;SDS011;28673;44.412;11.918;2023-03-04T06:08:24;25.63;;;12.13;;
43048;SDS011;28673;44.412;11.918;2023-03-04T06:10:52;25.70;;;13.70;;
43048;SDS011;28673;44.412;11.918;2023-03-04T06:13:19;23.35;;;12.65;;
43048;SDS011;28673;44.412;11.918;2023-03-04T06:15:46;22.98;;;14.27;;
43048;SDS011;28673;44.412;11.918;2023-03-04T06:18:12;19.02;;;12.63;;
43048;SDS011;28673;44.412;11.918;2023-03-04T06:20:38;24.38;;;14.00;;
43048;SDS011;28673;44.412;11.918;2023-03-04T06:23:04;28.75;;;16.35;;
43048;SDS011;28673;44.412;11.918;2023-03-04T06:25:30;26.08;;;13.55;;
43048;SDS011;28673;44.412;11.918;2023-03-04T06:27:56;28.88;;;14.57;;
43048;SDS011;28673;44.412;11.918;2023-03-04T06:30:43;22.92;;;15.15;;
43048;SDS011;28673;44.412;11.918;2023-03-04T06:33:18;22.25;;;14.07;;
43048;SDS011;28673;44.412;11.918;2023-03-04T06:36:04;27.13;;;15.80;;
43048;SDS011;28673;44.412;11.918;2023-03-04T06:38:36;28.55;;;15.88;;
43048;SDS011;28673;44.412;11.918;2023-03-04T06:41:12;29.00;;;16.92;;
43048;SDS011;28673;44.412;11.918;2023-03-04T06:43:38;29.33;;;15.27;;
43048;SDS011;28673;44.412;11.918;2023-03-04T06:46:07;29.23;;;18.15;;
43048;SDS011;28673;44.412;11.918;2023-03-04T06:48:45;39.53;;;19.15;;
43048;SDS011;28673;44.412;11.918;2023-03-04T06:51:17;30.35;;;19.55;;
43048;SDS011;28673;44.412;11.918;2023-03-04T06:53:55;41.20;;;21.92;;
43048;SDS011;28673;44.412;11.918;2023-03-04T06:56:28;39.88;;;23.35;;
43048;SDS011;28673;44.412;11.918;2023-03-04T06:59:00;39.10;;;22.25;;
43048;SDS011;28673;44.412;11.918;2023-03-04T07:01:27;38.50;;;24.20;;
43048;SDS011;28673;44.412;11.918;2023-03-04T07:03:58;44.53;;;22.07;;
43048;SDS011;28673;44.412;11.918;2023-03-04T07:06:26;47.25;;;25.85;;
43048;SDS011;28673;44.412;11.918;2023-03-04T07:08:56;41.47;;;23.77;;
43048;SDS011;28673;44.412;11.918;2023-03-04T07:11:28;42.33;;;23.58;;
43048;SDS011;28673;44.412;11.918;2023-03-04T07:16:26;42.30;;;22.85;;
43048;SDS011;28673;44.412;11.918;2023-03-04T07:18:52;49.75;;;27.00;;
43048;SDS011;28673;44.412;11.918;2023-03-04T07:21:28;51.33;;;26.35;;
43048;SDS011;28673;44.412;11.918;2023-03-04T07:23:57;50.88;;;26.90;;
43048;SDS011;28673;44.412;11.918;2023-03-04T07:26:23;50.80;;;27.88;;
43048;SDS011;28673;44.412;11.918;2023-03-04T07:28:59;55.67;;;28.70;;
43048;SDS011;28673;44.412;11.918;2023-03-04T07:31:35;49.35;;;26.33;;
43048;SDS011;28673;44.412;11.918;2023-03-04T07:34:14;61.40;;;28.95;;
43048;SDS011;28673;44.412;11.918;2023-03-04T07:36:43;62.90;;;30.73;;
43048;SDS011;28673;44.412;11.918;2023-03-04T07:39:13;60.95;;;31.88;;
43048;SDS011;28673;44.412;11.918;2023-03-04T07:41:44;57.47;;;31.15;;
43048;SDS011;28673;44.412;11.918;2023-03-04T07:44:10;58.60;;;31.27;;
43048;SDS011;28673;44.412;11.918;2023-03-04T07:46:47;66.45;;;33.22;;
43048;SDS011;28673;44.412;11.918;2023-03-04T07:49:14;62.95;;;35.08;;
43048;SDS011;28673;44.412;11.918;2023-03-04T07:51:45;64.95;;;34.85;;
43048;SDS011;28673;44.412;11.918;2023-03-04T07:54:20;70.70;;;33.90;;
43048;SDS011;28673;44.412;11.918;2023-03-04T07:56:46;68.45;;;33.67;;
43048;SDS011;28673;44.412;11.918;2023-03-04T07:59:12;72.57;;;35.85;;
43048;SDS011;28673;44.412;11.918;2023-03-04T08:01:38;64.53;;;35.20;;
43048;SDS011;28673;44.412;11.918;2023-03-04T08:04:04;71.40;;;38.13;;
43048;SDS011;28673;44.412;11.918;2023-03-04T08:06:31;69.60;;;36.05;;
43048;SDS011;28673;44.412;11.918;2023-03-04T08:08:59;69.50;;;37.03;;
43048;SDS011;28673;44.412;11.918;2023-03-04T08:11:27;72.13;;;37.45;;
43048;SDS011;28673;44.412;11.918;2023-03-04T08:13:54;73.90;;;39.28;;
43048;SDS011;28673;44.412;11.918;2023-03-04T08:16:21;72.50;;;37.60;;
43048;SDS011;28673;44.412;11.918;2023-03-04T08:18:49;74.57;;;38.10;;
43048;SDS011;28673;44.412;11.918;2023-03-04T08:21:20;71.72;;;37.33;;
43048;SDS011;28673;44.412;11.918;2023-03-04T08:23:47;65.30;;;36.25;;
43048;SDS011;28673;44.412;11.918;2023-03-04T08:26:23;76.55;;;39.17;;
43048;SDS011;28673;44.412;11.918;2023-03-04T08:28:50;69.22;;;36.92;;
43048;SDS011;28673;44.412;11.918;2023-03-04T08:31:17;69.45;;;37.30;;
43048;SDS011;28673;44.412;11.918;2023-03-04T08:33:43;63.53;;;37.72;;
43048;SDS011;28673;44.412;11.918;2023-03-04T08:36:10;60.05;;;33.40;;
43048;SDS011;28673;44.412;11.918;2023-03-04T08:38:36;67.45;;;36.15;;
43048;SDS011;28673;44.412;11.918;2023-03-04T08:41:02;61.80;;;34.53;;
43048;SDS011;28673;44.412;11.918;2023-03-04T08:43:28;59.92;;;32.50;;
43048;SDS011;28673;44.412;11.918;2023-03-04T08:45:55;61.08;;;34.03;;
43048;SDS011;28673;44.412;11.918;2023-03-04T08:48:21;62.55;;;33.90;;
43048;SDS011;28673;44.412;11.918;2023-03-04T08:50:48;63.10;;;33.42;;
43048;SDS011;28673;44.412;11.918;2023-03-04T08:53:15;58.63;;;32.25;;
43048;SDS011;28673;44.412;11.918;2023-03-04T08:55:41;56.22;;;31.50;;
43048;SDS011;28673;44.412;11.918;2023-03-04T08:58:08;63.15;;;32.50;;
43048;SDS011;28673;44.412;11.918;2023-03-04T09:00:35;50.60;;;30.50;;
43048;SDS011;28673;44.412;11.918;2023-03-04T09:03:02;54.75;;;33.70;;
43048;SDS011;28673;44.412;11.918;2023-03-04T09:05:29;58.22;;;31.98;;
43048;SDS011;28673;44.412;11.918;2023-03-04T09:07:55;54.85;;;31.98;;
43048;SDS011;28673;44.412;11.918;2023-03-04T09:10:21;60.08;;;32.78;;
43048;SDS011;28673;44.412;11.918;2023-03-04T09:12:47;56.22;;;29.80;;
43048;SDS011;28673;44.412;11.918;2023-03-04T09:15:13;62.47;;;31.80;;
43048;SDS011;28673;44.412;11.918;2023-03-04T09:17:39;45.30;;;29.27;;
43048;SDS011;28673;44.412;11.918;2023-03-04T09:20:06;51.75;;;28.23;;
43048;SDS011;28673;44.412;11.918;2023-03-04T09:22:38;49.28;;;26.20;;
43048;SDS011;28673;44.412;11.918;2023-03-04T09:25:05;41.45;;;25.52;;
43048;SDS011;28673;44.412;11.918;2023-03-04T09:27:32;43.35;;;25.02;;
43048;SDS011;28673;44.412;11.918;2023-03-04T09:29:58;35.63;;;23.48;;
43048;SDS011;28673;44.412;11.918;2023-03-04T09:32:24;44.35;;;25.88;;
43048;SDS011;28673;44.412;11.918;2023-03-04T09:34:50;47.78;;;25.63;;
43048;SDS011;28673;44.412;11.918;2023-03-04T09:37:15;44.38;;;22.63;;
43048;SDS011;28673;44.412;11.918;2023-03-04T09:39:41;39.90;;;22.38;;
43048;SDS011;28673;44.412;11.918;2023-03-04T09:42:08;31.38;;;20.08;;
43048;SDS011;28673;44.412;11.918;2023-03-04T09:44:40;36.33;;;21.25;;
43048;SDS011;28673;44.412;11.918;2023-03-04T09:47:11;30.13;;;21.00;;
43048;SDS011;28673;44.412;11.918;2023-03-04T09:49:41;31.35;;;18.83;;
43048;SDS011;28673;44.412;11.918;2023-03-04T09:52:29;41.33;;;21.75;;
43048;SDS011;28673;44.412;11.918;2023-03-04T09:57:55;31.40;;;19.73;;
43048;SDS011;28673;44.412;11.918;2023-03-04T10:09:03;31.33;;;20.15;;
43048;SDS011;28673;44.412;11.918;2023-03-04T10:11:38;37.15;;;19.85;;
43048;SDS011;28673;44.412;11.918;2023-03-04T10:14:28;37.30;;;20.58;;
43048;SDS011;28673;44.412;11.918;2023-03-04T10:20:08;31.92;;;18.23;;
43048;SDS011;28673;44.412;11.918;2023-03-04T10:22:44;28.85;;;18.33;;
43048;SDS011;28673;44.412;11.918;2023-03-04T10:25:31;31.17;;;19.10;;
43048;SDS011;28673;44.412;11.918;2023-03-04T10:28:12;31.20;;;18.48;;
43048;SDS011;28673;44.412;11.918;2023-03-04T10:30:50;31.17;;;19.50;;
43048;SDS011;28673;44.412;11.918;2023-03-04T10:33:33;32.75;;;19.45;;
43048;SDS011;28673;44.412;11.918;2023-03-04T10:36:03;31.00;;;17.52;;
43048;SDS011;28673;44.412;11.918;2023-03-04T10:38:41;34.25;;;19.80;;
43048;SDS011;28673;44.412;11.918;2023-03-04T10:41:18;33.28;;;18.60;;
43048;SDS011;28673;44.412;11.918;2023-03-04T10:44:00;29.67;;;18.30;;
43048;SDS011;28673;44.412;11.918;2023-03-04T10:46:29;28.50;;;18.13;;
43048;SDS011;28673;44.412;11.918;2023-03-04T10:48:55;30.33;;;18.73;;
43048;SDS011;28673;44.412;11.918;2023-03-04T10:51:23;32.42;;;19.20;;
43048;SDS011;28673;44.412;11.918;2023-03-04T10:53:54;30.77;;;18.67;;
43048;SDS011;28673;44.412;11.918;2023-03-04T11:02:20;33.67;;;19.58;;
43048;SDS011;28673;44.412;11.918;2023-03-04T11:05:16;27.55;;;18.60;;
43048;SDS011;28673;44.412;11.918;2023-03-04T11:07:45;28.85;;;18.38;;
43048;SDS011;28673;44.412;11.918;2023-03-04T11:10:20;35.42;;;19.67;;
43048;SDS011;28673;44.412;11.918;2023-03-04T11:13:32;38.03;;;20.95;;
43048;SDS011;28673;44.412;11.918;2023-03-04T11:15:58;27.38;;;17.63;;
43048;SDS011;28673;44.412;11.918;2023-03-04T11:18:37;31.08;;;17.95;;
43048;SDS011;28673;44.412;11.918;2023-03-04T11:21:12;27.80;;;18.20;;
43048;SDS011;28673;44.412;11.918;2023-03-04T11:23:46;31.33;;;18.48;;
43048;SDS011;28673;44.412;11.918;2023-03-04T11:26:22;33.63;;;19.70;;
43048;SDS011;28673;44.412;11.918;2023-03-04T11:28:58;29.27;;;17.63;;
43048;SDS011;28673;44.412;11.918;2023-03-04T11:31:50;31.75;;;18.10;;
43048;SDS011;28673;44.412;11.918;2023-03-04T11:34:53;31.88;;;19.33;;
43048;SDS011;28673;44.412;11.918;2023-03-04T11:37:32;29.88;;;18.40;;
43048;SDS011;28673;44.412;11.918;2023-03-04T11:46:05;29.10;;;17.67;;
43048;SDS011;28673;44.412;11.918;2023-03-04T11:48:41;30.65;;;18.17;;
43048;SDS011;28673;44.412;11.918;2023-03-04T11:51:20;28.77;;;18.42;;
43048;SDS011;28673;44.412;11.918;2023-03-04T11:56:48;34.25;;;18.17;;
43048;SDS011;28673;44.412;11.918;2023-03-04T12:10:20;33.80;;;19.90;;
43048;SDS011;28673;44.412;11.918;2023-03-04T12:13:01;37.28;;;20.17;;
43048;SDS011;28673;44.412;11.918;2023-03-04T12:19:05;39.88;;;19.23;;
43048;SDS011;28673;44.412;11.918;2023-03-04T12:41:21;29.00;;;16.65;;
43048;SDS011;28673;44.412;11.918;2023-03-04T12:43:41;27.42;;;16.85;;
43048;SDS011;28673;44.412;11.918;2023-03-04T12:55:03;22.95;;;14.23;;
43048;SDS011;28673;44.412;11.918;2023-03-04T13:00:20;24.65;;;16.15;;
43048;SDS011;28673;44.412;11.918;2023-03-04T13:05:41;25.20;;;16.15;;
43048;SDS011;28673;44.412;11.918;2023-03-04T13:10:46;28.08;;;17.02;;
43048;SDS011;28673;44.412;11.918;2023-03-04T13:18:42;22.50;;;15.38;;
43048;SDS011;28673;44.412;11.918;2023-03-04T13:23:38;22.73;;;15.82;;
43048;SDS011;28673;44.412;11.918;2023-03-04T13:26:14;26.98;;;15.50;;
43048;SDS011;28673;44.412;11.918;2023-03-04T13:28:44;23.57;;;14.03;;
43048;SDS011;28673;44.412;11.918;2023-03-04T13:31:15;26.45;;;14.23;;
43048;SDS011;28673;44.412;11.918;2023-03-04T13:33:46;20.33;;;13.00;;
43048;SDS011;28673;44.412;11.918;2023-03-04T13:36:30;21.70;;;13.77;;
43048;SDS011;28673;44.412;11.918;2023-03-04T13:39:00;25.50;;;13.80;;
43048;SDS011;28673;44.412;11.918;2023-03-04T13:41:31;19.38;;;13.82;;
43048;SDS011;28673;44.412;11.918;2023-03-04T13:44:30;20.98;;;13.60;;
43048;SDS011;28673;44.412;11.918;2023-03-04T13:47:11;21.42;;;13.10;;
43048;SDS011;28673;44.412;11.918;2023-03-04T13:49:40;20.33;;;14.20;;
43048;SDS011;28673;44.412;11.918;2023-03-04T13:58:16;20.02;;;11.27;;
43048;SDS011;28673;44.412;11.918;2023-03-04T14:00:48;22.95;;;11.70;;
43048;SDS011;28673;44.412;11.918;2023-03-04T14:03:23;20.13;;;11.98;;
43048;SDS011;28673;44.412;11.918;2023-03-04T14:06:08;22.33;;;11.10;;
43048;SDS011;28673;44.412;11.918;2023-03-04T14:08:34;22.10;;;12.95;;
43048;SDS011;28673;44.412;11.918;2023-03-04T14:11:00;22.75;;;12.57;;
43048;SDS011;28673;44.412;11.918;2023-03-04T14:13:26;21.92;;;13.10;;
43048;SDS011;28673;44.412;11.918;2023-03-04T14:15:53;26.27;;;13.02;;
43048;SDS011;28673;44.412;11.918;2023-03-04T14:18:21;20.20;;;14.40;;
43048;SDS011;28673;44.412;11.918;2023-03-04T14:20:49;25.20;;;13.70;;
43048;SDS011;28673;44.412;11.918;2023-03-04T14:26:09;22.25;;;14.35;;
43048;SDS011;28673;44.412;11.918;2023-03-04T14:28:44;21.33;;;13.43;;
43048;SDS011;28673;44.412;11.918;2023-03-04T14:31:14;26.00;;;14.75;;
43048;SDS011;28673;44.412;11.918;2023-03-04T14:33:46;25.88;;;15.02;;
43048;SDS011;28673;44.412;11.918;2023-03-04T14:36:15;26.45;;;16.20;;
43048;SDS011;28673;44.412;11.918;2023-03-04T14:38:47;27.33;;;16.55;;
43048;SDS011;28673;44.412;11.918;2023-03-04T14:48:53;26.67;;;15.90;;
43048;SDS011;28673;44.412;11.918;2023-03-04T14:54:22;25.33;;;13.52;;
43048;SDS011;28673;44.412;11.918;2023-03-04T14:56:53;31.10;;;15.07;;
43048;SDS011;28673;44.412;11.918;2023-03-04T14:59:35;22.65;;;12.43;;
43048;SDS011;28673;44.412;11.918;2023-03-04T15:02:08;27.23;;;14.48;;
43048;SDS011;28673;44.412;11.918;2023-03-04T15:04:42;22.33;;;14.77;;
43048;SDS011;28673;44.412;11.918;2023-03-04T15:07:13;21.67;;;14.43;;
43048;SDS011;28673;44.412;11.918;2023-03-04T15:09:52;19.02;;;12.75;;
43048;SDS011;28673;44.412;11.918;2023-03-04T15:12:27;26.23;;;14.57;;
43048;SDS011;28673;44.412;11.918;2023-03-04T15:14:59;24.38;;;15.82;;
43048;SDS011;28673;44.412;11.918;2023-03-04T15:17:31;22.27;;;14.55;;
43048;SDS011;28673;44.412;11.918;2023-03-04T15:20:24;26.05;;;15.00;;
43048;SDS011;28673;44.412;11.918;2023-03-04T15:25:18;23.65;;;14.60;;
43048;SDS011;28673;44.412;11.918;2023-03-04T15:27:45;22.75;;;15.57;;
43048;SDS011;28673;44.412;11.918;2023-03-04T15:30:16;22.75;;;14.45;;
43048;SDS011;28673;44.412;11.918;2023-03-04T15:32:44;26.33;;;15.68;;
43048;SDS011;28673;44.412;11.918;2023-03-04T15:35:13;24.98;;;14.60;;
43048;SDS011;28673;44.412;11.918;2023-03-04T15:40:14;23.52;;;14.85;;
43048;SDS011;28673;44.412;11.918;2023-03-04T15:42:47;28.83;;;16.77;;
43048;SDS011;28673;44.412;11.918;2023-03-04T15:45:35;27.70;;;14.77;;
43048;SDS011;28673;44.412;11.918;2023-03-04T15:48:04;27.55;;;13.63;;
43048;SDS011;28673;44.412;11.918;2023-03-04T15:50:34;23.90;;;14.75;;
43048;SDS011;28673;44.412;11.918;2023-03-04T15:53:02;25.42;;;15.02;;
43048;SDS011;28673;44.412;11.918;2023-03-04T15:55:31;25.77;;;15.05;;
43048;SDS011;28673;44.412;11.918;2023-03-04T15:57:59;22.35;;;13.98;;
43048;SDS011;28673;44.412;11.918;2023-03-04T16:00:26;23.67;;;13.88;;
43048;SDS011;28673;44.412;11.918;2023-03-04T16:02:52;28.42;;;14.55;;
43048;SDS011;28673;44.412;11.918;2023-03-04T16:05:18;24.20;;;13.52;;
43048;SDS011;28673;44.412;11.918;2023-03-04T16:07:46;27.35;;;16.17;;
43048;SDS011;28673;44.412;11.918;2023-03-04T16:10:19;24.48;;;14.73;;
43048;SDS011;28673;44.412;11.918;2023-03-04T16:12:48;26.55;;;14.95;;
43048;SDS011;28673;44.412;11.918;2023-03-04T16:15:16;21.75;;;14.15;;
43048;SDS011;28673;44.412;11.918;2023-03-04T16:17:45;25.63;;;14.10;;
43048;SDS011;28673;44.412;11.918;2023-03-04T16:20:11;24.58;;;14.38;;
43048;SDS011;28673;44.412;11.918;2023-03-04T16:22:39;29.25;;;15.85;;